Aeroporto :
LOGIN :

Iscrizione | Disclaimer

   EN    FR    IT 

 










Sommario :    VFR   VFR Marginale   IFR   IFR Intensivo   IFR Molto Intensivo
Visibilità : 
Base nubi : 
>= 8 km
>= 3000ft
5 / 8 km
1000 / 3000 ft
1500m / 5 km
500 / 1000 ft
800 / 1500m
200 / 500 ft
< 800m
< 200 ft
Simboli :   Temporali  Nebbia  Neve Forte  Precipitazioni Forti  Vento > 20 kt
SIGMETs :   Varie  Temporali  Ghiacco  Turbolenza  Onda orograficha  Ceneri Vulcaniche






- Altitudine del aeroporto : 302 ft
- Codice IATA : MAH


LEMH - Menorca

ULTIMO METAR :
  • 050630Z 26003KT 220V320 9999 FEW030 20/14 Q1008

METARs OBSOLETI :
  • 050600Z VRB02KT 9999 FEW030 19/13 Q1007
  • 050530Z 16002KT 9999 FEW030 18/14 Q1007
  • 050500Z 18004KT 9999 SCT030 17/13 Q1007
  • 050430Z VRB01KT 9999 SCT030 16/13 Q1007
  • 050400Z 06003KT 9999 SCT030 17/12 Q1006
  • 050330Z AUTO 09002KT 9999 SCT034/// BKN039/// BKN044/// 17/13 Q1006

TAF TAF LEMH
Valido dal 05 a 03 ore il 06 a 03 ore UTC


050200Z 0503/0603 29009KT 9999 SCT020 TX26/0512Z TN16/0506Z
BECMG 0504/0506 VRB04KT
BECMG 0510/0512 27015KT
TEMPO 0512/0517 27015G25KT
BECMG 0517/0519 VRB04KT
BECMG 0521/0523 20010KT



MetMap, La meteo Aeronautica in un colpo d'occhio ! - Copyright ORBIFLY Dicembre 2007 - Disclaimer

ORBIFLY MET'MAP TEAM :

Programmazione e sviluppo : Alexandra Zaïnal
Concezione : Baudouin d'Aumeries
Aiuto per la programmazione : Marc-Olivier Méhu
Supporto tecnico e logistico : Manuel Goepfert
Aiuto per la traduzione : Arnaldo La Scala

Contatto : metmap@orbifly.com




FONTI E CREDITI :

   NOAA